Swallowfield Close, Crewe weather

Latitude N 53° 04' 54" Longitude W 02° 27' 25" Elevation 52 m Grid Ref SJ69475393

This page shows a table of observations data for today using the Cumulus "recent history" webtags facility. It is experimental only. The table shows data observations at 10 minute intervals for the 8 hours prior to 06:50 on Saturday 20 July i.e. the time this page was processed by Cumulus. Ideally in the long-term this will be replaced by a script to read data/realtimelog.txt for the current (or selectable) date and display all the observations for the applicable meteorological date (20/07/2019 in this case) starting at midnight (rollover time). This will fix the start of the observations table to a defined point.

The graph shows the same data but at 5-minute intervals.


Table of observations data (at 10-minute intervals) for Swallowfield Close, Crewe since 21:50 on 20/07/2019
Observations
Time Temp Wind Chill Dewpoint Pressure Wind Speed Wind Gust Wind Dir Humidity Rainfall
21:50 17.3 °C 17.3 °C 14.9 °C 1004.2 hPa 8.0 km/h 11.2 km/h 86 % 16.2 mm
22:00 17.2 °C 17.2 °C 14.8 °C 1004.4 hPa 6.8 km/h 11.2 km/h 86 % 16.2 mm
22:10 17.2 °C 17.2 °C 14.7 °C 1004.2 hPa 5.8 km/h 9.7 km/h 85 % 16.2 mm
22:20 17.2 °C 17.2 °C 14.7 °C 1004.2 hPa 7.4 km/h 11.2 km/h 85 % 16.2 mm
22:30 17.1 °C 17.1 °C 14.6 °C 1004.0 hPa 6.6 km/h 8.6 km/h 85 % 16.2 mm
22:40 17.1 °C 17.1 °C 14.6 °C 1003.8 hPa 6.4 km/h 15.8 km/h 85 % 16.2 mm
22:50 17.0 °C 17.0 °C 14.5 °C 1003.7 hPa 7.3 km/h 12.2 km/h 85 % 16.2 mm
23:00 16.9 °C 16.9 °C 14.6 °C 1003.5 hPa 8.8 km/h 13.3 km/h 86 % 16.2 mm
23:10 16.8 °C 16.8 °C 14.6 °C 1003.4 hPa 6.2 km/h 11.2 km/h 87 % 16.2 mm
23:20 16.7 °C 16.7 °C 14.5 °C 1003.3 hPa 6.2 km/h 9.7 km/h 87 % 16.2 mm
23:30 16.6 °C 16.6 °C 14.6 °C 1003.4 hPa 8.6 km/h 13.3 km/h 88 % 16.2 mm
23:40 16.5 °C 16.5 °C 14.5 °C 1003.3 hPa 7.1 km/h 13.3 km/h 88 % 16.2 mm
23:50 16.7 °C 16.7 °C 14.7 °C 1003.4 hPa 8.2 km/h 12.2 km/h 88 % 16.2 mm
00:00 16.6 °C 16.6 °C 14.6 °C 1003.3 hPa 8.4 km/h 13.3 km/h 88 % 0.0 mm
00:10 16.7 °C 16.7 °C 14.9 °C 1003.4 hPa 6.6 km/h 12.2 km/h 89 % 0.0 mm
00:20 16.5 °C 16.5 °C 14.7 °C 1003.4 hPa 8.5 km/h 14.8 km/h 89 % 0.0 mm
00:30 16.4 °C 16.4 °C 14.6 °C 1003.1 hPa 8.8 km/h 14.8 km/h 89 % 0.0 mm
00:40 16.3 °C 16.3 °C 14.5 °C 1003.1 hPa 6.5 km/h 11.2 km/h 89 % 0.0 mm
00:50 16.1 °C 16.1 °C 14.3 °C 1003.0 hPa 8.3 km/h 11.2 km/h 89 % 0.0 mm
01:00 16.0 °C 16.0 °C 14.2 °C 1003.0 hPa 6.0 km/h 8.6 km/h 89 % 0.0 mm
01:10 16.0 °C 16.0 °C 14.2 °C 1002.8 hPa 7.1 km/h 7.2 km/h 89 % 0.0 mm
01:20 15.9 °C 15.9 °C 14.4 °C 1003.1 hPa 4.9 km/h 9.7 km/h 91 % 0.0 mm
01:30 15.6 °C 15.6 °C 14.1 °C 1003.0 hPa 5.2 km/h 12.2 km/h 91 % 0.0 mm
01:40 15.8 °C 15.8 °C 14.3 °C 1003.0 hPa 3.0 km/h 8.6 km/h 91 % 0.0 mm
01:50 15.9 °C 15.9 °C 14.4 °C 1003.0 hPa 3.7 km/h 7.2 km/h 91 % 0.0 mm
02:00 15.9 °C 15.9 °C 14.6 °C 1002.9 hPa 4.2 km/h 9.7 km/h 92 % 0.0 mm
02:10 15.9 °C 15.9 °C 14.6 °C 1002.8 hPa 6.8 km/h 11.2 km/h 92 % 0.0 mm
02:20 15.8 °C 15.8 °C 14.5 °C 1002.6 hPa 8.2 km/h 11.2 km/h 92 % 0.0 mm
02:30 15.5 °C 15.5 °C 14.2 °C 1002.5 hPa 5.8 km/h 11.2 km/h 92 % 0.0 mm
02:40 15.6 °C 15.6 °C 14.3 °C 1002.6 hPa 7.9 km/h 12.2 km/h 92 % 0.0 mm
02:50 15.5 °C 15.5 °C 14.2 °C 1002.5 hPa 7.7 km/h 12.2 km/h 92 % 0.0 mm
03:00 15.6 °C 15.6 °C 14.3 °C 1002.1 hPa 8.8 km/h 14.8 km/h 92 % 0.0 mm
03:10 15.6 °C 15.6 °C 14.3 °C 1001.9 hPa 8.9 km/h 9.7 km/h 92 % 0.0 mm
03:20 15.7 °C 15.7 °C 14.4 °C 1001.8 hPa 8.5 km/h 14.8 km/h 92 % 0.0 mm
03:30 15.6 °C 15.6 °C 14.5 °C 1001.6 hPa 7.5 km/h 13.3 km/h 93 % 0.0 mm
03:40 15.6 °C 15.6 °C 14.5 °C 1001.4 hPa 7.1 km/h 11.2 km/h 93 % 0.0 mm
03:50 15.6 °C 15.6 °C 14.5 °C 1001.4 hPa 7.1 km/h 13.3 km/h 93 % 0.0 mm
04:00 15.7 °C 15.7 °C 14.6 °C 1001.3 hPa 6.6 km/h 13.3 km/h 93 % 0.0 mm
04:10 15.7 °C 15.7 °C 14.6 °C 1001.3 hPa 9.2 km/h 13.3 km/h 93 % 0.0 mm
04:20 15.6 °C 15.6 °C 14.5 °C 1001.2 hPa 6.9 km/h 9.7 km/h 93 % 0.0 mm
04:30 15.6 °C 15.6 °C 14.5 °C 1001.2 hPa 7.5 km/h 12.2 km/h 93 % 0.0 mm
04:40 15.6 °C 15.6 °C 14.5 °C 1001.0 hPa 7.0 km/h 13.3 km/h 93 % 0.0 mm
04:50 15.8 °C 15.8 °C 14.7 °C 1001.1 hPa 9.6 km/h 14.8 km/h 93 % 0.0 mm
04:59 16.0 °C 16.0 °C 14.7 °C 1000.9 hPa 10.7 km/h 22.0 km/h 92 % 0.0 mm
05:09 16.0 °C 16.0 °C 14.7 °C 1000.6 hPa 10.5 km/h 13.3 km/h 92 % 0.0 mm
05:20 16.1 °C 16.1 °C 14.8 °C 1000.7 hPa 9.7 km/h 14.8 km/h 92 % 0.0 mm
05:30 16.1 °C 16.1 °C 14.8 °C 1001.0 hPa 9.7 km/h 13.3 km/h 92 % 0.0 mm
05:40 16.3 °C 16.3 °C 15.0 °C 1000.8 hPa 8.4 km/h 14.8 km/h 92 % 0.0 mm
05:50 16.2 °C 16.2 °C 14.9 °C 1000.9 hPa 7.9 km/h 11.2 km/h 92 % 0.0 mm
06:00 16.3 °C 16.3 °C 15.0 °C 1000.9 hPa 8.5 km/h 11.2 km/h 92 % 0.0 mm
06:10 16.4 °C 16.4 °C 15.1 °C 1000.7 hPa 5.5 km/h 9.7 km/h 92 % 0.0 mm
06:19 16.5 °C 16.5 °C 15.0 °C 1000.8 hPa 5.6 km/h 8.6 km/h 91 % 0.0 mm
06:30 16.6 °C 16.6 °C 15.1 °C 1000.8 hPa 7.5 km/h 17.3 km/h 91 % 0.0 mm
06:40 16.7 °C 16.7 °C 15.2 °C 1000.9 hPa 7.5 km/h 12.2 km/h 91 % 0.0 mm
:now: :trends: :gauges: :today/yesterday: :observations:
:month/year: :monthly records: :all-time records: :annual data: :noaa reports: :seasonal averages:
:mobile: :forum: :webcam: :system:



Page updated 20/07/2019 06:50:17
powered by Cumulus v1.9.4 (1099)